Time;durP1;ratioP1;P1;durP2;ratioP2;P2;SDS_P1;SDS_P2;PMS_P1;PMS_P2;Temp;Humidity;BMP_temperature;BMP_pressure;BME280_temperature;BME280_humidity;BME280_pressure;Samples;Min_cycle;Max_cycle;Signal;HPM_P1;HPM_P2
2021/08/31 00:00:39;;;;;;;5.30;4.80;;;;;;;17.08;100.00;98585.07;1706766;82;21040;-71
2021/08/31 00:03:10;;;;;;;5.55;4.40;;;;;;;17.02;100.00;98590.63;1680714;84;21590;-71
2021/08/31 00:05:40;;;;;;;8.70;4.78;;;;;;;16.99;100.00;98587.62;1680696;84;21605;-71
2021/08/31 00:08:10;;;;;;;8.00;4.30;;;;;;;16.98;100.00;98591.67;1700846;84;21506;-71
2021/08/31 00:10:39;;;;;;;10.18;4.83;;;;;;;16.88;100.00;98592.52;1699794;83;20952;-71
2021/08/31 00:13:08;;;;;;;4.97;4.45;;;;;;;16.88;100.00;98592.52;1699845;84;20967;-71
2021/08/31 00:15:38;;;;;;;6.55;4.17;;;;;;;16.85;100.00;98588.64;1681740;84;21629;-71
2021/08/31 00:18:08;;;;;;;5.00;4.03;;;;;;;16.82;100.00;98594.09;1711010;84;20941;-70
2021/08/31 00:20:37;;;;;;;6.95;4.67;;;;;;;16.79;100.00;98594.22;1684343;84;20920;-70
2021/08/31 00:23:07;;;;;;;9.53;5.72;;;;;;;16.76;100.00;98590.81;1711223;83;21467;-70
2021/08/31 00:25:35;;;;;;;10.38;5.60;;;;;;;16.64;100.00;98595.66;1709891;82;20912;-70
2021/08/31 00:28:05;;;;;;;6.55;5.08;;;;;;;16.60;100.00;98595.84;1707418;84;21458;-70
2021/08/31 00:30:34;;;;;;;4.95;4.47;;;;;;;16.60;100.00;98595.84;1707284;83;21164;-69
2021/08/31 00:33:03;;;;;;;6.95;4.05;;;;;;;16.51;100.00;98592.17;1710059;83;21020;-69
2021/08/31 00:35:32;;;;;;;5.50;4.47;;;;;;;16.46;100.00;98606.13;1711509;83;21000;-70
2021/08/31 00:38:01;;;;;;;4.17;3.77;;;;;;;16.46;100.00;98606.13;1711034;82;21511;-69
2021/08/31 00:40:30;;;;;;;10.28;4.08;;;;;;;16.33;100.00;98601.28;1711476;83;21095;-69
2021/08/31 00:43:02;;;;;;;8.28;3.62;;;;;;;16.33;100.00;98601.28;1711410;83;21160;-69
2021/08/31 00:45:31;;;;;;;3.92;3.40;;;;;;;16.27;100.00;98608.63;1685368;83;21481;-66
2021/08/31 00:47:59;;;;;;;4.05;3.17;;;;;;;16.24;100.00;98605.63;1685570;83;20995;-64
2021/08/31 00:50:27;;;;;;;3.47;3.10;;;;;;;16.22;100.00;98604.81;1711411;83;21047;-64
2021/08/31 00:52:55;;;;;;;3.98;2.40;;;;;;;16.19;100.00;98602.73;1679769;85;20883;-65
2021/08/31 00:55:25;;;;;;;2.55;2.35;;;;;;;16.10;100.00;98605.73;1676563;85;21162;-63
2021/08/31 00:57:53;;;;;;;5.53;3.40;;;;;;;16.10;100.00;98605.73;1652580;85;20958;-63
2021/08/31 01:00:22;;;;;;;8.10;3.83;;;;;;;16.07;100.00;98604.02;1679652;85;20970;-64
2021/08/31 01:02:50;;;;;;;4.65;3.92;;;;;;;16.05;100.00;98601.88;1652288;85;21555;-65
2021/08/31 01:05:21;;;;;;;4.28;3.87;;;;;;;16.05;100.00;98601.88;1679100;85;21058;-62
2021/08/31 01:07:49;;;;;;;6.05;3.62;;;;;;;16.01;100.00;98611.77;1678808;85;21147;-62
2021/08/31 01:10:20;;;;;;;4.60;3.80;;;;;;;16.01;100.00;98611.77;1679481;84;21512;-63
2021/08/31 01:12:48;;;;;;;6.92;3.85;;;;;;;15.99;100.00;98608.75;1666758;84;20958;-63
2021/08/31 01:15:16;;;;;;;4.10;3.70;;;;;;;15.94;100.00;98603.60;1658733;84;20870;-63
2021/08/31 01:17:44;;;;;;;4.83;4.30;;;;;;;15.93;100.00;98603.20;1638461;86;21042;-64
2021/08/31 01:20:13;;;;;;;5.20;4.05;;;;;;;15.93;100.00;98603.20;1677485;85;21187;-64
2021/08/31 01:22:44;;;;;;;6.75;4.87;;;;;;;15.89;100.00;98596.25;1692328;84;21468;-64
2021/08/31 01:25:14;;;;;;;4.45;3.72;;;;;;;15.85;100.00;98602.61;1672469;85;21054;-65
2021/08/31 01:27:42;;;;;;;3.92;3.15;;;;;;;15.80;100.00;98602.37;1647157;85;21492;-65
2021/08/31 01:30:12;;;;;;;4.58;3.25;;;;;;;15.78;100.00;98599.77;1672701;85;21490;-64
2021/08/31 01:32:40;;;;;;;7.90;3.50;;;;;;;15.76;100.00;98594.96;1672685;85;21107;-63
2021/08/31 01:35:08;;;;;;;10.95;4.00;;;;;;;15.73;100.00;98603.05;1647323;85;20893;-63
2021/08/31 01:37:37;;;;;;;4.37;3.67;;;;;;;15.70;100.00;98605.36;1647073;85;21511;-63
2021/08/31 01:40:07;;;;;;;3.25;2.58;;;;;;;15.67;100.00;98607.25;1672760;85;20956;-63
2021/08/31 01:42:35;;;;;;;3.65;3.20;;;;;;;15.64;100.00;98606.91;1672470;85;21036;-63
2021/08/31 01:45:05;;;;;;;4.40;3.60;;;;;;;15.64;100.00;98606.03;1647276;85;21338;-63
2021/08/31 01:47:34;;;;;;;4.62;3.77;;;;;;;15.61;100.00;98601.70;1648390;85;21018;-63
2021/08/31 01:50:02;;;;;;;5.10;4.28;;;;;;;15.59;100.00;98598.65;1676826;85;20930;-64
2021/08/31 01:52:31;;;;;;;6.65;4.00;;;;;;;15.56;100.00;98603.58;1676424;85;21505;-64
2021/08/31 01:55:00;;;;;;;10.08;4.25;;;;;;;15.55;100.00;98603.17;1672016;84;21555;-64
2021/08/31 01:57:28;;;;;;;4.70;4.17;;;;;;;15.55;100.00;98604.50;1673761;84;21297;-64
2021/08/31 01:59:56;;;;;;;15.90;4.78;;;;;;;15.54;100.00;98604.09;1668723;84;20887;-64
2021/08/31 02:02:25;;;;;;;5.80;4.35;;;;;;;15.53;100.00;98610.80;1696316;83;20986;-64
2021/08/31 02:04:53;;;;;;;5.05;3.80;;;;;;;15.51;100.00;98609.52;1693096;84;21004;-65
2021/08/31 02:07:22;;;;;;;7.90;4.37;;;;;;;15.50;100.00;98611.77;1667156;84;21438;-64
2021/08/31 02:09:51;;;;;;;6.90;4.05;;;;;;;15.51;100.00;98603.33;1667292;84;21080;-64
2021/08/31 02:12:22;;;;;;;4.30;3.90;;;;;;;15.51;100.00;98607.32;1698448;83;21458;-63
2021/08/31 02:14:53;;;;;;;4.83;4.33;;;;;;;15.49;100.00;98608.70;1669351;84;21425;-63
2021/08/31 02:17:22;;;;;;;4.67;4.20;;;;;;;15.48;100.00;98606.97;1680027;83;21482;-64
2021/08/31 02:19:50;;;;;;;6.20;4.10;;;;;;;15.48;100.00;98606.97;1704314;83;21498;-63
2021/08/31 02:22:19;;;;;;;6.30;4.92;;;;;;;15.49;100.00;98615.34;1706947;83;21130;-64
2021/08/31 02:24:48;;;;;;;9.68;5.10;;;;;;;15.51;100.00;98620.61;1706681;83;21590;-64
2021/08/31 02:27:16;;;;;;;9.65;4.87;;;;;;;15.51;100.00;98620.15;1680744;84;20948;-64
2021/08/31 02:29:44;;;;;;;7.03;4.40;;;;;;;15.51;100.00;98610.84;1706621;83;20900;-63
2021/08/31 02:32:12;;;;;;;6.75;4.50;;;;;;;15.52;100.00;98615.70;1680261;84;20946;-64
2021/08/31 02:34:44;;;;;;;6.80;4.80;;;;;;;15.52;100.00;98613.91;1700753;83;21552;-63
2021/08/31 02:37:14;;;;;;;9.63;5.12;;;;;;;15.51;100.00;98617.49;1700855;83;28686;-63
2021/08/31 02:39:42;;;;;;;6.70;4.95;;;;;;;15.47;100.00;98616.32;1674703;84;21007;-63
2021/08/31 02:42:11;;;;;;;9.98;5.00;;;;;;;15.38;100.00;98614.84;1697878;84;21050;-64
2021/08/31 02:44:42;;;;;;;6.78;4.25;;;;;;;15.25;100.00;98607.75;1695480;84;20963;-64
2021/08/31 02:47:11;;;;;;;7.15;4.42;;;;;;;15.13;100.00;98612.11;1698242;84;21306;-64
2021/08/31 02:49:40;;;;;;;9.45;4.90;;;;;;;15.07;100.00;98613.64;1674968;84;21002;-63
2021/08/31 02:52:15;;;;;;;9.75;5.55;;;;;;;15.00;100.00;98621.41;1701408;83;21089;-65
2021/08/31 02:54:43;;;;;;;6.75;4.90;;;;;;;14.95;100.00;98621.55;1699978;83;21564;-64
2021/08/31 02:57:13;;;;;;;8.25;4.60;;;;;;;14.92;100.00;98626.96;1705542;83;21543;-63
2021/08/31 02:59:43;;;;;;;8.15;4.67;;;;;;;14.90;100.00;98627.47;1651846;84;21159;-63
2021/08/31 03:02:12;;;;;;;27.85;4.67;;;;;;;14.90;100.00;98634.11;1676801;84;20943;-64
2021/08/31 03:04:45;;;;;;;5.62;4.00;;;;;;;14.86;100.00;98628.48;1676659;84;21014;-64
2021/08/31 03:07:17;;;;;;;6.27;3.63;;;;;;;14.85;100.00;98633.84;1677056;85;21071;-63
2021/08/31 03:09:47;;;;;;;8.10;4.20;;;;;;;14.86;100.00;98632.47;1669099;84;21474;-63
2021/08/31 03:12:17;;;;;;;5.58;3.60;;;;;;;14.88;100.00;98633.75;1704410;83;21433;-63
2021/08/31 03:14:48;;;;;;;5.92;3.77;;;;;;;14.87;100.00;98638.19;1706669;83;21409;-63
2021/08/31 03:17:19;;;;;;;7.08;4.37;;;;;;;14.87;100.00;98638.19;1719488;82;21590;-64
2021/08/31 03:19:54;;;;;;;4.28;3.62;;;;;;;14.90;100.00;98643.41;1720356;82;20913;-64
2021/08/31 03:22:22;;;;;;;4.20;3.58;;;;;;;14.92;100.00;98638.91;1720275;82;20957;-64
2021/08/31 03:24:50;;;;;;;5.08;4.53;;;;;;;14.97;100.00;98638.30;1720421;82;21792;-64
2021/08/31 03:27:18;;;;;;;5.87;4.53;;;;;;;15.00;100.00;98640.00;1720885;82;20941;-63
2021/08/31 03:29:46;;;;;;;10.10;4.72;;;;;;;15.02;100.00;98637.70;1720379;82;20944;-63
2021/08/31 03:32:19;;;;;;;4.62;3.47;;;;;;;15.02;100.00;98641.69;1718891;82;21515;-63
2021/08/31 03:34:55;;;;;;;4.35;3.77;;;;;;;15.05;100.00;98640.26;1720409;83;20904;-65
2021/08/31 03:37:25;;;;;;;5.58;4.40;;;;;;;15.08;100.00;98639.29;1725872;81;22098;-65
2021/08/31 03:40:02;;;;;;;5.12;4.60;;;;;;;15.08;100.00;98639.29;1741570;81;21522;-65
2021/08/31 03:42:34;;;;;;;4.78;4.28;;;;;;;15.05;100.00;98640.72;1724722;81;20948;-64
2021/08/31 03:45:06;;;;;;;4.92;3.80;;;;;;;15.00;100.00;98648.83;1739334;81;21467;-64
2021/08/31 03:47:36;;;;;;;4.17;3.77;;;;;;;14.99;100.00;98648.42;1707093;82;20974;-63
2021/08/31 03:50:11;;;;;;;3.95;3.58;;;;;;;15.01;100.00;98653.23;1716595;82;21558;-64
2021/08/31 03:52:43;;;;;;;5.17;3.65;;;;;;;15.04;100.00;98643.83;1704784;82;21518;-64
2021/08/31 03:55:13;;;;;;;4.65;4.15;;;;;;;15.07;100.00;98657.47;1675871;83;21559;-64
2021/08/31 03:57:45;;;;;;;4.05;3.33;;;;;;;15.08;100.00;98653.44;1675750;83;20973;-64
2021/08/31 04:00:15;;;;;;;5.62;3.33;;;;;;;15.12;100.00;98650.22;1695394;83;20958;-63
2021/08/31 04:02:43;;;;;;;5.30;4.25;;;;;;;15.15;100.00;98644.84;1751986;81;21107;-64
2021/08/31 04:05:12;;;;;;;5.28;4.05;;;;;;;15.16;100.00;98651.89;1720675;83;20913;-65
2021/08/31 04:07:43;;;;;;;5.45;4.50;;;;;;;15.15;100.00;98655.93;1728965;82;21020;-64
2021/08/31 04:10:13;;;;;;;5.53;4.10;;;;;;;15.14;100.00;98655.06;1707151;84;20973;-64
2021/08/31 04:12:43;;;;;;;4.55;3.87;;;;;;;15.12;100.00;98658.20;1706885;84;21483;-65
2021/08/31 04:15:17;;;;;;;6.45;4.22;;;;;;;15.15;100.00;98650.61;1706815;84;21163;-62
2021/08/31 04:17:50;;;;;;;6.00;4.25;;;;;;;15.16;100.00;98659.00;1694492;83;21144;-63
2021/08/31 04:20:20;;;;;;;5.12;4.17;;;;;;;15.22;100.00;98661.45;1672643;84;21546;-63
2021/08/31 04:22:53;;;;;;;4.83;3.85;;;;;;;15.23;100.00;98661.86;1674136;84;21492;-64
2021/08/31 04:25:25;;;;;;;8.68;3.50;;;;;;;15.26;100.00;98669.27;1645099;85;20901;-63
2021/08/31 04:27:53;;;;;;;3.85;3.55;;;;;;;15.33;100.00;98675.26;1674424;84;21097;-66
2021/08/31 04:30:22;;;;;;;3.98;3.60;;;;;;;15.40;100.00;98675.00;1701703;84;21044;-63
2021/08/31 04:32:50;;;;;;;5.85;3.90;;;;;;;15.43;100.00;98675.36;1708149;82;20999;-65
2021/08/31 04:35:19;;;;;;;3.62;3.33;;;;;;;15.45;100.00;98684.15;1724095;82;21194;-65
2021/08/31 04:37:48;;;;;;;3.75;3.35;;;;;;;15.48;100.00;98679.19;1705955;82;21913;-65
2021/08/31 04:40:16;;;;;;;6.35;3.62;;;;;;;15.50;100.00;98682.20;1713408;82;21135;-64
2021/08/31 04:42:48;;;;;;;6.90;5.12;;;;;;;15.55;100.00;98683.38;1712076;82;21071;-64
2021/08/31 04:45:16;;;;;;;10.30;5.45;;;;;;;15.58;100.00;98682.85;1721005;82;21471;-63
2021/08/31 04:47:44;;;;;;;8.70;4.75;;;;;;;15.59;100.00;98677.95;1702984;81;20948;-63
2021/08/31 04:50:12;;;;;;;8.60;4.60;;;;;;;15.61;100.00;98680.13;1713126;82;21537;-63
2021/08/31 04:52:42;;;;;;;8.13;5.15;;;;;;;15.66;100.00;98678.17;1727444;81;21083;-64
2021/08/31 04:55:13;;;;;;;8.77;5.83;;;;;;;15.67;100.00;98670.61;1679413;83;21532;-63
2021/08/31 04:57:43;;;;;;;11.75;6.40;;;;;;;15.65;100.00;98673.78;1681403;84;21324;-63
2021/08/31 05:00:13;;;;;;;9.80;6.42;;;;;;;15.64;100.00;98680.02;1687568;84;20966;-63
2021/08/31 05:02:41;;;;;;;9.68;5.87;;;;;;;15.61;100.00;98681.91;1702881;83;20919;-63
2021/08/31 05:05:10;;;;;;;8.18;5.90;;;;;;;15.62;100.00;98679.66;1724141;82;21037;-64
2021/08/31 05:07:39;;;;;;;10.85;7.05;;;;;;;15.67;100.00;98679.91;1700014;83;21936;-64
2021/08/31 05:10:09;;;;;;;18.50;6.75;;;;;;;15.69;100.00;98682.52;1685644;84;20968;-64
2021/08/31 05:12:37;;;;;;;9.10;6.60;;;;;;;15.64;100.00;98685.34;1688455;82;21026;-62
2021/08/31 05:15:06;;;;;;;10.00;6.55;;;;;;;15.63;100.00;98694.69;1703755;84;20948;-64
2021/08/31 05:17:34;;;;;;;7.22;5.83;;;;;;;15.63;100.00;98706.20;1724478;82;21164;-65
2021/08/31 05:20:05;;;;;;;6.67;5.90;;;;;;;15.61;100.00;98700.52;1709099;83;20984;-63
2021/08/31 05:22:32;;;;;;;8.03;4.87;;;;;;;15.67;100.00;98709.62;1703746;83;20963;-63
2021/08/31 05:25:03;;;;;;;5.00;3.72;;;;;;;15.77;100.00;98703.07;1691738;82;21036;-63
2021/08/31 05:27:32;;;;;;;6.47;3.62;;;;;;;15.90;100.00;98715.02;1676702;84;20980;-63
2021/08/31 05:30:00;;;;;;;8.58;3.90;;;;;;;16.14;100.00;98708.47;1682592;84;21128;-64
2021/08/31 05:32:28;;;;;;;8.33;4.20;;;;;;;16.14;100.00;98708.47;1731071;81;21556;-62
2021/08/31 05:34:56;;;;;;;4.30;3.90;;;;;;;16.28;100.00;98700.85;1727838;81;21528;-64
2021/08/31 05:37:24;;;;;;;4.30;3.90;;;;;;;16.41;100.00;98710.59;1726606;81;21184;-63
2021/08/31 05:39:52;;;;;;;6.67;3.67;;;;;;;16.51;100.00;98706.20;1720252;81;20957;-64
2021/08/31 05:42:20;;;;;;;4.87;3.83;;;;;;;16.82;100.00;98707.30;1715810;83;21206;-62
2021/08/31 05:44:49;;;;;;;4.83;2.98;;;;;;;16.82;100.00;98707.30;1717416;81;20976;-62
2021/08/31 05:47:17;;;;;;;5.42;2.85;;;;;;;16.96;100.00;98700.98;1715992;81;21024;-64
2021/08/31 05:49:45;;;;;;;3.30;2.90;;;;;;;17.09;100.00;98698.73;1753465;81;20905;-63
2021/08/31 05:52:13;;;;;;;2.80;2.30;;;;;;;17.22;100.00;98697.77;1740395;81;20931;-63
2021/08/31 05:54:42;;;;;;;3.12;2.50;;;;;;;17.36;100.00;98700.75;1740684;81;21840;-69
2021/08/31 05:57:10;;;;;;;5.00;3.02;;;;;;;17.47;100.00;98694.52;1716162;83;20984;-69
2021/08/31 05:59:41;;;;;;;5.03;2.85;;;;;;;17.61;100.00;98697.50;1724829;81;21475;-68
2021/08/31 06:02:09;;;;;;;3.80;2.62;;;;;;;17.72;100.00;98691.75;1727845;81;21047;-69
2021/08/31 06:04:38;;;;;;;4.37;2.17;;;;;;;17.84;100.00;98693.89;1724469;83;20959;-70
2021/08/31 06:07:09;;;;;;;8.28;3.08;;;;;;;17.94;100.00;98689.03;1740870;81;21145;-68
2021/08/31 06:09:39;;;;;;;4.10;2.80;;;;;;;18.06;100.00;98683.66;1694559;84;21452;-65
2021/08/31 06:12:10;;;;;;;3.15;2.37;;;;;;;18.19;100.00;98680.38;1679288;84;21036;-63
2021/08/31 06:14:38;;;;;;;4.28;2.50;;;;;;;18.32;100.00;98676.69;1677038;84;21107;-66
2021/08/31 06:17:06;;;;;;;2.10;1.90;;;;;;;18.44;100.00;98680.61;1695426;83;20880;-69
2021/08/31 06:19:33;;;;;;;3.17;1.77;;;;;;;18.54;100.00;98677.48;1711082;83;21149;-64
2021/08/31 06:22:02;;;;;;;3.17;1.70;;;;;;;18.64;100.00;98671.28;1698167;83;21037;-63
2021/08/31 06:24:30;;;;;;;1.62;1.20;;;;;;;18.73;100.00;98670.84;1710831;82;21124;-62
2021/08/31 06:26:58;;;;;;;3.20;1.50;;;;;;;18.83;100.00;98672.15;1710446;82;21017;-63
2021/08/31 06:29:27;;;;;;;2.25;1.27;;;;;;;18.96;100.00;98677.81;1709046;82;21123;-63
2021/08/31 06:31:55;;;;;;;4.03;1.50;;;;;;;19.06;100.00;98679.58;1710200;82;21822;-64
2021/08/31 06:34:23;;;;;;;1.40;1.30;;;;;;;19.16;100.00;98679.05;1698759;82;20959;-62
2021/08/31 06:36:50;;;;;;;19.50;1.60;;;;;;;19.27;100.00;98672.31;1682705;82;21054;-61
2021/08/31 06:39:18;;;;;;;1.20;1.10;;;;;;;19.36;100.00;98676.74;1710329;82;20918;-61
2021/08/31 06:41:47;;;;;;;1.40;1.30;;;;;;;19.47;100.00;98678.92;1711629;82;21010;-62
2021/08/31 06:44:15;;;;;;;2.22;1.77;;;;;;;19.56;100.00;98684.31;1711091;82;21161;-62
2021/08/31 06:46:42;;;;;;;1.17;1.07;;;;;;;19.63;100.00;98675.04;1708269;84;21511;-63
2021/08/31 06:49:12;;;;;;;1.47;1.37;;;;;;;19.71;100.00;98684.88;1710003;83;21057;-63
2021/08/31 06:51:40;;;;;;;4.85;1.42;;;;;;;19.76;100.00;98689.05;1706580;84;20991;-62
2021/08/31 06:54:09;;;;;;;3.12;1.32;;;;;;;19.84;100.00;98685.13;1709889;82;21441;-63
2021/08/31 06:56:38;;;;;;;1.82;1.60;;;;;;;19.90;100.00;98683.03;1701641;82;21955;-64
2021/08/31 06:59:06;;;;;;;1.80;1.62;;;;;;;19.99;100.00;98685.23;1709413;82;21033;-66
2021/08/31 07:01:35;;;;;;;1.52;1.35;;;;;;;20.07;100.00;98684.84;1681523;84;21014;-66
2021/08/31 07:04:04;;;;;;;1.62;1.50;;;;;;;20.14;100.00;98684.91;1679911;84;21050;-66
2021/08/31 07:06:31;;;;;;;3.33;1.40;;;;;;;20.18;100.00;98681.13;1707777;83;21011;-66
2021/08/31 07:08:59;;;;;;;1.35;1.20;;;;;;;20.23;100.00;98687.10;1712293;82;21173;-66
2021/08/31 07:11:26;;;;;;;1.55;1.37;;;;;;;20.32;100.00;98689.30;1688808;83;21006;-65
2021/08/31 07:13:55;;;;;;;3.30;1.60;;;;;;;20.40;100.00;98691.63;1679776;85;20958;-65
2021/08/31 07:16:22;;;;;;;2.47;1.30;;;;;;;20.53;100.00;98694.05;1680701;84;21533;-65
2021/08/31 07:18:52;;;;;;;1.40;1.30;;;;;;;20.62;100.00;98686.84;1675831;84;20907;-66
2021/08/31 07:21:21;;;;;;;4.15;1.67;;;;;;;20.74;100.00;98685.31;1701294;83;20980;-66
2021/08/31 07:23:52;;;;;;;1.60;1.50;;;;;;;20.86;100.00;98689.16;1708750;82;21501;-65
2021/08/31 07:26:21;;;;;;;2.20;1.37;;;;;;;20.97;100.00;98685.41;1739204;82;20974;-66
2021/08/31 07:28:50;;;;;;;2.35;1.57;;;;;;;21.07;100.00;98691.99;1709486;82;21237;-63
2021/08/31 07:31:18;;;;;;;2.35;1.65;;;;;;;21.13;100.00;98692.98;1725224;82;21835;-63
2021/08/31 07:33:46;;;;;;;1.75;1.55;;;;;;;21.18;100.00;98696.27;1683007;83;21333;-69
2021/08/31 07:36:13;;;;;;;6.97;1.52;;;;;;;21.18;100.00;98688.70;1710515;82;20865;-61
2021/08/31 07:38:41;;;;;;;2.25;1.47;;;;;;;21.18;100.00;98690.91;1708576;83;20961;-61
2021/08/31 07:41:10;;;;;;;3.30;1.30;;;;;;;21.20;100.00;98691.69;1682274;84;20994;-64
2021/08/31 07:43:41;;;;;;;2.17;1.50;;;;;;;21.27;100.00;98693.11;1678276;84;21025;-66
2021/08/31 07:46:09;;;;;;;3.47;1.40;;;;;;;21.35;100.00;98689.54;1672764;84;21091;-61
2021/08/31 07:48:39;;;;;;;3.05;1.67;;;;;;;21.49;100.00;98689.22;1679363;84;21078;-64
2021/08/31 07:51:07;;;;;;;4.70;1.42;;;;;;;21.59;100.00;98685.91;1686342;83;21051;-63
2021/08/31 07:53:36;;;;;;;2.70;1.70;;;;;;;21.68;100.00;98684.51;1679542;84;20927;-64
2021/08/31 07:56:04;;;;;;;1.77;1.67;;;;;;;21.73;100.00;98682.42;1703829;84;20912;-63
2021/08/31 07:58:36;;;;;;;1.30;1.20;;;;;;;21.79;100.00;98682.09;1707707;83;21141;-63
2021/08/31 08:01:04;;;;;;;2.22;1.60;;;;;;;21.91;100.00;98684.52;1707994;83;21020;-64
2021/08/31 08:03:32;;;;;;;3.17;1.60;;;;;;;22.04;100.00;98684.20;1708321;83;20887;-64
2021/08/31 08:06:01;;;;;;;4.08;1.50;;;;;;;22.12;100.00;98681.06;1708729;83;20922;-64
2021/08/31 08:08:29;;;;;;;1.55;1.45;;;;;;;22.17;100.00;98677.14;1708857;83;21520;-64
2021/08/31 08:10:57;;;;;;;2.45;1.70;;;;;;;22.27;100.00;98677.47;1708582;83;23146;-64
2021/08/31 08:13:25;;;;;;;2.58;1.55;;;;;;;22.34;100.00;98669.42;1708883;84;21014;-64
2021/08/31 08:15:53;;;;;;;1.85;1.60;;;;;;;22.41;100.00;98668.56;1708749;83;21497;-64
2021/08/31 08:18:22;;;;;;;2.12;1.12;;;;;;;22.49;100.00;98671.16;1702556;83;21506;-64
2021/08/31 08:20:49;;;;;;;2.65;1.72;;;;;;;22.56;100.00;98668.47;1684728;85;20875;-65
2021/08/31 08:23:17;;;;;;;1.60;1.30;;;;;;;22.66;100.00;98658.48;1684946;85;21116;-64
2021/08/31 08:25:45;;;;;;;5.90;1.45;;;;;;;22.77;100.00;98658.70;1684618;85;21474;-64
2021/08/31 08:28:19;;;;;;;3.17;1.30;;;;;;;22.88;100.00;98659.77;1674047;85;21022;-65
2021/08/31 08:30:50;;;;;;;5.40;1.92;;;;;;;23.03;100.00;98661.95;1710875;83;21474;-64
2021/08/31 08:33:24;;;;;;;2.40;2.20;;;;;;;23.20;100.00;98664.45;1746941;81;20883;-65
2021/08/31 08:35:53;;;;;;;4.78;2.92;;;;;;;23.32;100.00;98652.02;1728770;83;20935;-65
2021/08/31 08:38:22;;;;;;;2.22;1.90;;;;;;;23.36;100.00;98644.12;1728296;83;20891;-64
2021/08/31 08:40:49;;;;;;;2.77;2.45;;;;;;;23.40;100.00;98646.98;1728742;83;21441;-62
2021/08/31 08:43:19;;;;;;;3.60;2.00;;;;;;;23.48;100.00;98645.13;1713926;83;21439;-65
2021/08/31 08:45:49;;;;;;;2.15;1.87;;;;;;;23.55;100.00;98643.30;1698030;84;21438;-64
2021/08/31 08:48:20;;;;;;;4.30;2.60;;;;;;;23.62;100.00;98645.09;1699145;84;21145;-64
2021/08/31 08:50:52;;;;;;;6.33;4.45;;;;;;;23.69;100.00;98638.84;1699103;84;20952;-63
2021/08/31 08:53:20;;;;;;;3.80;1.62;;;;;;;23.70;100.00;98643.27;1697071;84;21015;-64
2021/08/31 08:55:50;;;;;;;2.02;1.80;;;;;;;23.69;100.00;98636.16;1693585;84;20967;-64
2021/08/31 08:58:19;;;;;;;1.40;1.20;;;;;;;23.70;100.00;98638.74;1695972;84;20966;-63
2021/08/31 09:01:02;;;;;;;6.35;4.58;;;;;;;23.81;100.00;98625.41;1698570;84;21509;-64
2021/08/31 09:03:34;;;;;;;2.15;1.95;;;;;;;23.96;100.00;98632.06;1663304;84;20952;-63
2021/08/31 09:06:10;;;;;;;1.40;1.30;;;;;;;24.02;100.00;98630.29;1699255;84;20948;-63
2021/08/31 09:08:58;;;;;;;5.30;1.27;;;;;;;24.04;100.00;98621.13;1698841;84;20983;-63
2021/08/31 09:11:41;;;;;;;2.95;2.30;;;;;;;24.13;100.00;98616.97;1698187;84;21498;-63
2021/08/31 09:14:27;;;;;;;3.92;2.25;;;;;;;24.28;100.00;98613.71;1677604;84;21563;-63
2021/08/31 09:17:07;;;;;;;8.53;5.85;;;;;;;24.39;100.00;98607.94;1698044;84;20911;-63
2021/08/31 09:19:41;;;;;;;5.08;2.42;;;;;;;24.48;100.00;98601.89;1706594;82;21482;-63
2021/08/31 09:22:21;;;;;;;9.93;4.92;;;;;;;24.55;100.00;98608.19;1677553;84;21528;-62
2021/08/31 09:25:00;;;;;;;4.55;2.50;;;;;;;24.60;100.00;98612.31;1676523;85;21042;-64
2021/08/31 09:27:34;;;;;;;2.67;1.77;;;;;;;24.69;100.00;98608.95;1688807;84;21157;-64
2021/08/31 09:30:26;;;;;;;2.12;1.55;;;;;;;24.86;100.00;98606.37;1680840;84;21472;-64
2021/08/31 09:33:12;;;;;;;1.40;1.10;;;;;;;25.00;100.00;98606.73;1680261;84;21464;-64
2021/08/31 09:35:47;;;;;;;1.10;1.00;;;;;;;25.07;100.00;98607.55;1679738;85;20954;-63
2021/08/31 09:38:17;;;;;;;3.62;1.12;;;;;;;25.08;100.00;98607.93;1642100;87;21435;-63
2021/08/31 09:40:51;;;;;;;3.27;1.82;;;;;;;25.13;100.00;98610.77;1652222;85;21171;-63
2021/08/31 09:43:25;;;;;;;4.60;1.85;;;;;;;25.15;97.77;98607.47;1665846;85;20992;-64
2021/08/31 09:45:56;;;;;;;1.30;1.20;;;;;;;25.19;95.25;98608.48;1669741;85;20973;-64
2021/08/31 09:48:26;;;;;;;2.67;1.40;;;;;;;25.19;93.52;98608.97;1709028;83;20891;-64
2021/08/31 09:50:58;;;;;;;3.83;1.15;;;;;;;25.21;95.14;98609.72;1681334;84;21487;-62
2021/08/31 09:53:27;;;;;;;1.90;1.30;;;;;;;25.27;94.13;98614.17;1678845;85;21109;-63
2021/08/31 09:56:11;;;;;;;7.35;2.25;;;;;;;25.27;94.13;98614.17;1678683;85;21861;-63
2021/08/31 09:58:44;;;;;;;16.07;8.38;;;;;;;25.24;88.63;98615.75;1717700;82;21505;-61
2021/08/31 10:01:13;;;;;;;8.13;4.95;;;;;;;25.16;86.17;98618.64;1709597;83;20984;-60
2021/08/31 10:03:43;;;;;;;2.35;1.85;;;;;;;25.15;88.58;98617.78;1652529;85;20958;-60
2021/08/31 10:06:11;;;;;;;2.58;1.47;;;;;;;25.15;86.26;98616.92;1686940;84;21170;-61
2021/08/31 10:08:40;;;;;;;6.53;1.20;;;;;;;25.14;84.25;98614.71;1659519;85;21002;-61
2021/08/31 10:11:08;;;;;;;1.87;1.27;;;;;;;25.09;84.21;98612.35;1678093;84;21580;-61
2021/08/31 10:13:37;;;;;;;2.45;1.00;;;;;;;25.08;87.08;98610.62;1678883;85;20960;-60
2021/08/31 10:16:05;;;;;;;1.30;1.20;;;;;;;25.05;84.81;98612.17;1674560;85;20923;-60
2021/08/31 10:18:33;;;;;;;1.35;1.10;;;;;;;24.99;82.99;98609.06;1653885;84;21198;-62
2021/08/31 10:21:13;;;;;;;1.95;1.00;;;;;;;24.96;84.38;98608.77;1681495;84;21106;-61
2021/08/31 10:23:46;;;;;;;1.12;1.00;;;;;;;25.00;81.78;98605.39;1689868;84;20991;-62
2021/08/31 10:26:36;;;;;;;1.47;1.07;;;;;;;25.05;81.99;98610.83;1639202;87;20950;-62
2021/08/31 10:29:25;;;;;;;1.07;0.90;;;;;;;25.08;82.86;98605.72;1677672;84;20954;-61
2021/08/31 10:31:56;;;;;;;1.90;0.90;;;;;;;25.15;84.83;98601.59;1690981;83;21173;-61
2021/08/31 10:34:39;;;;;;;0.93;0.93;;;;;;;25.28;86.21;98598.34;1658664;85;25286;-62
2021/08/31 10:37:10;;;;;;;1.22;1.00;;;;;;;25.46;89.47;98602.84;1667230;84;20970;-62
2021/08/31 10:39:56;;;;;;;;;;;;;;;25.66;89.21;98607.66;1680234;84;21065;-62
2021/08/31 10:42:37;;;;;;;3.45;1.00;;;;;;;25.85;88.87;98607.59;1655031;86;20129;-62
2021/08/31 10:45:26;;;;;;;1.60;0.90;;;;;;;25.98;84.65;98613.28;1652751;85;21177;-61
2021/08/31 10:47:54;;;;;;;1.90;0.85;;;;;;;26.13;86.52;98603.15;1655209;85;20994;-62
2021/08/31 10:50:25;;;;;;;0.95;0.85;;;;;;;26.29;79.75;98602.31;1661181;85;21536;-63
2021/08/31 10:53:04;;;;;;;4.40;1.53;;;;;;;26.40;77.96;98603.33;1680005;84;21196;-64
2021/08/31 10:55:36;;;;;;;1.15;0.90;;;;;;;26.53;76.55;98601.41;1671776;85;26936;-63
2021/08/31 10:58:08;;;;;;;1.57;1.00;;;;;;;26.71;78.13;98605.33;1676445;85;22271;-62
2021/08/31 11:00:45;;;;;;;;;;;;;;;26.81;71.28;98602.25;1682087;85;20914;-64
2021/08/31 11:03:15;;;;;;;3.22;0.80;;;;;;;26.83;69.27;98607.05;1679989;85;20172;-63
2021/08/31 11:05:42;;;;;;;2.87;0.80;;;;;;;26.94;70.96;98602.11;1640727;85;20991;-63
2021/08/31 11:08:14;;;;;;;1.67;0.93;;;;;;;27.09;70.97;98600.91;1679598;85;21022;-63
2021/08/31 11:10:44;;;;;;;2.70;1.07;;;;;;;27.26;69.29;98602.22;1682024;84;21967;-63
2021/08/31 11:13:17;;;;;;;1.10;0.70;;;;;;;27.38;65.01;98597.63;1682930;84;20898;-62
2021/08/31 11:15:47;;;;;;;1.17;0.80;;;;;;;27.51;66.18;98603.77;1682571;84;20918;-63
2021/08/31 11:18:17;;;;;;;3.42;1.00;;;;;;;27.65;65.28;98602.63;1681741;84;20966;-63
2021/08/31 11:20:49;;;;;;;0.72;0.72;;;;;;;27.77;62.83;98604.30;1703732;82;20954;-63
2021/08/31 11:23:20;;;;;;;0.95;0.80;;;;;;;27.88;63.54;98606.45;1707235;82;21175;-63
2021/08/31 11:25:56;;;;;;;2.15;0.95;;;;;;;27.99;63.94;98600.64;1708166;82;20959;-64
2021/08/31 11:28:28;;;;;;;0.82;0.80;;;;;;;28.09;61.53;98600.20;1708542;82;20964;-64
2021/08/31 11:31:03;;;;;;;1.98;0.93;;;;;;;28.13;59.49;98597.59;1708322;82;21142;-62
2021/08/31 11:33:40;;;;;;;2.67;1.05;;;;;;;28.07;56.96;98607.61;1734569;81;20978;-62
2021/08/31 11:36:14;;;;;;;2.15;0.90;;;;;;;28.04;56.46;98605.17;1675471;84;21175;-62
2021/08/31 11:38:57;;;;;;;1.32;0.80;;;;;;;28.02;56.43;98602.59;1646817;85;20930;-63
2021/08/31 11:41:28;;;;;;;1.57;0.82;;;;;;;27.99;56.51;98604.20;1646791;85;20935;-63